Scroll down
FLIGHT INFORMATION
Etihad Airways

ETD901

At Arrival Gate

EDDF
 KORD
DATE: 2020-12-04
GATE: 
GATE DEPARTURE: 12:20
TAKEOFF: 12:32
DATE: 2020-12-04
GATE:  -
LANDING: 21:28
GATE ARRIVAL: 21:40
FLIGHT DATA
Crew: 
Speed: 
904 kph
Altitude: 
36,028 ft
Stage Length: 
6,970.9 km
Block Time: 
9.3 hrs
Flight Time: 
8.9 hrs
Fuel Used: 
72,869 kg
Cleared Route: 
TRACK DATA
50,000 ft 1,000 kts
AIRCRAFT INFO AND CUMULATIVE STATS
Aircraft Type: 
B77LF
Registration: 
SELCAL: 
GPAR
MSN/LN: 
39682 / 939
Operator: 
Total Flights: 
2
Total Block Time: 
17.2 hrs
Total Flight Time: 
16.5 hrs
Total Fuel Used: 
130,874 kg
DATALINK LOG | Newest first | Current as of: 2023-01-30 08:41:08
LABEL SEQUENCE CONTENT Dn/Up
QD470721:40 24.3▼ Dn
QC370821:28▼ Dn
2U0739KORD 050651Z 34007KT 10SM FEW030 M01/M04 A3006 RMK AO2 SLP185 T10061039▲ Up
2S0739KORD▼ Dn
QB543712:32▼ Dn
QA415612:20 185.2▼ Dn
A33300CLEARED TO KORD VIA OBOK1D OBOKA Z29 TORNU BREDA GALSO Q63 ERING L179 FERIT M14 STOAT L613 ABKAT L613 TLA L602 GOW ERAKA NATA URTAK N748A LOMTA N758A VANSI N760A SSM WYNDE2. SQUAWK 5664.▲ Up
B33250EDDF KORD Q ▼ Dn
2U3249EDDF 042220Z 02005KT 9999 SCT013 OVC018 03/M00 Q0991 TEMPO BKN013▲ Up
2S3249EDDF▼ Dn
Q03047[LINK ACK]▲ Up
Q03047[LINK TEST]▼ Dn


AIRCRAFT HISTORY
FLIGHT DATE FLIGHT NO. ORIGIN DESTINATION CLEARED ROUTE BLOCK TIME FLIGHT TIME FUEL USED PILOT
2020-12-05ETD902KORD EDDF 7.9 hrs7.6 hrs127,878 lbMichael Roth
2020-12-04ETD901EDDF KORD 9.3 hrs8.9 hrs160,649 lbMichael Roth